Time;durP1;ratioP1;P1;durP2;ratioP2;P2;SDS_P1;SDS_P2;PMS_P1;PMS_P2;Temp;Humidity;BMP_temperature;BMP_pressure;BME280_temperature;BME280_humidity;BME280_pressure;Samples;Min_cycle;Max_cycle;Signal;HPM_P1;HPM_P2
2023/05/27 00:00:12;;;;;;;;;;;8.70;99.90;;;;;;4921258;29;19927;-79
2023/05/27 00:02:38;;;;;;;;;;;8.80;99.90;;;;;;4921943;29;19935;-79
2023/05/27 00:05:04;;;;;;;;;;;8.80;99.90;;;;;;4920941;29;19938;-79
2023/05/27 00:07:30;;;;;;;;;;;8.70;99.90;;;;;;4903941;29;19927;-79
2023/05/27 00:09:56;;;;;;;;;;;8.70;99.90;;;;;;4908252;29;20258;-79
2023/05/27 00:12:22;;;;;;;;;;;9.10;99.90;;;;;;4898090;29;19933;-79
2023/05/27 00:14:47;;;;;;;;;;;8.70;99.90;;;;;;4910102;29;19934;-79
2023/05/27 00:17:13;;;;;;;;;;;8.90;99.90;;;;;;4900171;29;19928;-79
2023/05/27 00:19:44;;;;;;;;;;;8.60;99.90;;;;;;4918684;29;19983;-79
2023/05/27 00:22:10;;;;;;;;;;;8.60;99.90;;;;;;4903045;29;19982;-79
2023/05/27 00:24:38;;;;;;;;;;;8.70;99.90;;;;;;4917596;29;19931;-79
2023/05/27 00:27:07;;;;;;;;;;;8.60;99.90;;;;;;4915644;29;19935;-79
2023/05/27 00:29:33;;;;;;;;;;;8.60;99.90;;;;;;4923196;29;19982;-79
2023/05/27 00:32:02;;;;;;;;;;;8.60;99.90;;;;;;4926368;29;19967;-80
2023/05/27 00:34:28;;;;;;;;;;;8.50;99.90;;;;;;4905014;29;19927;-79
2023/05/27 00:36:54;;;;;;;;;;;8.60;99.90;;;;;;4923492;29;20052;-79
2023/05/27 00:39:19;;;;;;;;;;;8.50;99.90;;;;;;4909577;29;19928;-79
2023/05/27 00:41:48;;;;;;;;;;;8.60;99.90;;;;;;4922277;29;19935;-79
2023/05/27 00:44:13;;;;;;;;;;;8.50;99.90;;;;;;4905644;29;19954;-79
2023/05/27 00:46:39;;;;;;;;;;;8.60;99.90;;;;;;4928659;29;20305;-79
2023/05/27 00:49:04;;;;;;;;;;;8.60;99.90;;;;;;4931060;29;19928;-79
2023/05/27 00:51:31;;;;;;;;;;;8.50;99.90;;;;;;4926684;29;19933;-79
2023/05/27 00:53:56;;;;;;;;;;;8.50;99.90;;;;;;4927876;29;19983;-79
2023/05/27 00:56:22;;;;;;;;;;;8.40;99.90;;;;;;4922207;29;19931;-78
2023/05/27 00:58:47;;;;;;;;;;;8.50;99.90;;;;;;4927476;29;19927;-78
2023/05/27 01:01:13;;;;;;;;;;;8.40;99.90;;;;;;4922303;29;19934;-78
2023/05/27 01:03:41;;;;;;;;;;;8.40;99.90;;;;;;4927377;29;20010;-78
2023/05/27 01:06:10;;;;;;;;;;;8.40;99.90;;;;;;4927524;29;20010;-78
2023/05/27 01:08:47;;;;;;;;;;;8.40;99.90;;;;;;4919720;29;19951;-79
2023/05/27 01:11:13;;;;;;;;;;;8.40;99.90;;;;;;4925680;29;19927;-78
2023/05/27 01:13:38;;;;;;;;;;;8.60;99.90;;;;;;4924149;29;19983;-79
2023/05/27 01:16:09;;;;;;;;;;;8.40;99.90;;;;;;4919843;29;19987;-79
2023/05/27 01:18:35;;;;;;;;;;;8.30;99.90;;;;;;4925813;29;19931;-79
2023/05/27 01:21:06;;;;;;;;;;;8.40;99.90;;;;;;4924459;29;19928;-78
2023/05/27 01:23:32;;;;;;;;;;;8.30;99.90;;;;;;4902346;29;19927;-77
2023/05/27 01:25:58;;;;;;;;;;;8.30;99.90;;;;;;4927039;29;19932;-78
2023/05/27 01:28:24;;;;;;;;;;;8.40;99.90;;;;;;4933247;29;19941;-78
2023/05/27 01:30:51;;;;;;;;;;;8.40;99.90;;;;;;4928883;29;19935;-79
2023/05/27 01:33:21;;;;;;;;;;;8.40;99.90;;;;;;4926750;29;19934;-78
2023/05/27 01:35:49;;;;;;;;;;;8.40;99.90;;;;;;4919885;29;19927;-78
2023/05/27 01:38:17;;;;;;;;;;;8.40;99.90;;;;;;4907562;29;19931;-78
2023/05/27 01:40:43;;;;;;;;;;;8.40;99.90;;;;;;4902327;29;19928;-79
2023/05/27 01:43:10;;;;;;;;;;;8.50;99.90;;;;;;4906849;29;19975;-79
2023/05/27 01:45:35;;;;;;;;;;;8.50;99.90;;;;;;4905439;29;20297;-78
2023/05/27 01:48:01;;;;;;;;;;;8.50;99.90;;;;;;4917201;29;19927;-78
2023/05/27 01:50:26;;;;;;;;;;;8.50;99.90;;;;;;4915411;29;19934;-78
2023/05/27 01:52:52;;;;;;;;;;;8.50;99.90;;;;;;4908087;29;20301;-79
2023/05/27 01:55:18;;;;;;;;;;;8.50;99.90;;;;;;4920887;29;19931;-79
2023/05/27 01:57:43;;;;;;;;;;;8.50;99.90;;;;;;4894817;29;19934;-79
2023/05/27 02:00:09;;;;;;;;;;;8.40;99.90;;;;;;4914166;29;19935;-79
2023/05/27 02:02:35;;;;;;;;;;;8.40;99.90;;;;;;4890066;29;19929;-78
2023/05/27 02:05:00;;;;;;;;;;;8.40;99.90;;;;;;4908364;29;20389;-78
2023/05/27 02:07:27;;;;;;;;;;;8.40;99.90;;;;;;4891767;29;19985;-78
2023/05/27 02:09:53;;;;;;;;;;;8.30;99.90;;;;;;4904379;29;19935;-78
2023/05/27 02:12:18;;;;;;;;;;;8.30;99.90;;;;;;4907310;29;19927;-78
2023/05/27 02:14:44;;;;;;;;;;;8.30;99.90;;;;;;4905006;29;19951;-78
2023/05/27 02:17:11;;;;;;;;;;;8.30;99.90;;;;;;4910978;29;20322;-78
2023/05/27 02:19:36;;;;;;;;;;;8.20;99.90;;;;;;4914017;29;19927;-79
2023/05/27 02:22:02;;;;;;;;;;;8.30;99.90;;;;;;4909227;29;19936;-78
2023/05/27 02:24:28;;;;;;;;;;;8.20;99.90;;;;;;4914623;29;19934;-78
2023/05/27 02:26:53;;;;;;;;;;;8.20;99.90;;;;;;4916402;29;19938;-78
2023/05/27 02:29:19;;;;;;;;;;;8.20;99.90;;;;;;4912266;29;19942;-78
2023/05/27 02:31:44;;;;;;;;;;;8.30;99.90;;;;;;4918037;29;19999;-79
2023/05/27 02:34:10;;;;;;;;;;;8.30;99.90;;;;;;4933498;29;19938;-79
2023/05/27 02:36:35;;;;;;;;;;;8.30;99.90;;;;;;4926092;29;20000;-78
2023/05/27 02:39:01;;;;;;;;;;;8.30;99.90;;;;;;4915152;29;19927;-78
2023/05/27 02:41:26;;;;;;;;;;;8.30;99.90;;;;;;4918126;29;20081;-78
2023/05/27 02:43:52;;;;;;;;;;;8.40;99.90;;;;;;4919364;29;19927;-78
2023/05/27 02:46:17;;;;;;;;;;;8.40;99.90;;;;;;4886438;29;19927;-78
2023/05/27 02:48:43;;;;;;;;;;;8.40;99.90;;;;;;4917348;29;19938;-78
2023/05/27 02:51:08;;;;;;;;;;;8.40;99.90;;;;;;4921894;29;19934;-79
2023/05/27 02:53:34;;;;;;;;;;;8.40;99.90;;;;;;4917670;29;19934;-79
2023/05/27 02:56:00;;;;;;;;;;;8.40;99.90;;;;;;4907872;29;19927;-79
2023/05/27 02:58:25;;;;;;;;;;;8.40;99.90;;;;;;4917457;29;19938;-79
2023/05/27 03:00:51;;;;;;;;;;;8.50;99.90;;;;;;4918070;29;19974;-79
2023/05/27 03:03:17;;;;;;;;;;;8.40;99.90;;;;;;4914524;29;19951;-79
2023/05/27 03:05:42;;;;;;;;;;;8.40;99.90;;;;;;4912862;29;19927;-79
2023/05/27 03:08:08;;;;;;;;;;;8.40;99.90;;;;;;4918699;29;20372;-78
2023/05/27 03:10:33;;;;;;;;;;;8.50;99.90;;;;;;4918386;29;19975;-79
2023/05/27 03:12:59;;;;;;;;;;;8.40;99.90;;;;;;4907668;29;19934;-78
2023/05/27 03:15:25;;;;;;;;;;;8.40;99.90;;;;;;4901274;29;19928;-79
2023/05/27 03:17:51;;;;;;;;;;;8.80;99.90;;;;;;4901617;29;20364;-78
2023/05/27 03:20:18;;;;;;;;;;;8.60;99.90;;;;;;4915675;29;19927;-78
2023/05/27 03:22:44;;;;;;;;;;;8.50;99.90;;;;;;4917798;29;20352;-78
2023/05/27 03:25:10;;;;;;;;;;;8.60;99.90;;;;;;4906399;29;19990;-78
2023/05/27 03:27:36;;;;;;;;;;;8.50;99.90;;;;;;4886383;29;19952;-78
2023/05/27 03:30:02;;;;;;;;;;;8.60;99.90;;;;;;4887380;29;19928;-79
2023/05/27 03:32:28;;;;;;;;;;;8.60;99.90;;;;;;4921893;29;19942;-78
2023/05/27 03:34:53;;;;;;;;;;;9.10;99.90;;;;;;4921603;29;19946;-79
2023/05/27 03:37:19;;;;;;;;;;;8.70;99.90;;;;;;4920775;29;19927;-79
2023/05/27 03:39:44;;;;;;;;;;;8.70;99.90;;;;;;4928006;29;19934;-79
2023/05/27 03:42:10;;;;;;;;;;;8.70;99.90;;;;;;4932853;29;19934;-79
2023/05/27 03:44:35;;;;;;;;;;;8.70;99.90;;;;;;4924901;29;19923;-79
2023/05/27 03:47:02;;;;;;;;;;;9.10;99.90;;;;;;4923575;29;19927;-79
2023/05/27 03:49:27;;;;;;;;;;;8.90;99.90;;;;;;4923343;29;19996;-79
2023/05/27 03:51:53;;;;;;;;;;;8.90;99.90;;;;;;4925422;29;19927;-79
2023/05/27 03:54:18;;;;;;;;;;;8.90;99.90;;;;;;4918748;29;19927;-79
2023/05/27 03:56:44;;;;;;;;;;;9.00;99.90;;;;;;4908070;29;19932;-79
2023/05/27 03:59:11;;;;;;;;;;;9.00;99.90;;;;;;4913295;29;19927;-79
2023/05/27 04:01:37;;;;;;;;;;;9.00;99.90;;;;;;4916768;29;20373;-79
2023/05/27 04:04:03;;;;;;;;;;;9.00;99.90;;;;;;4910486;29;19928;-79
2023/05/27 04:06:28;;;;;;;;;;;9.10;99.90;;;;;;4907362;29;20319;-79
2023/05/27 04:08:55;;;;;;;;;;;9.40;99.90;;;;;;4904006;29;19931;-78
2023/05/27 04:11:20;;;;;;;;;;;9.10;99.90;;;;;;4911953;29;19935;-79
2023/05/27 04:13:48;;;;;;;;;;;9.10;99.90;;;;;;4897569;29;19998;-78
2023/05/27 04:16:15;;;;;;;;;;;9.10;99.90;;;;;;4916345;29;20389;-79
2023/05/27 04:18:40;;;;;;;;;;;9.20;99.90;;;;;;4910792;29;19927;-79
2023/05/27 04:21:08;;;;;;;;;;;9.20;99.90;;;;;;4913901;29;20019;-79
2023/05/27 04:23:33;;;;;;;;;;;9.20;99.90;;;;;;4886366;29;20433;-79
2023/05/27 04:25:59;;;;;;;;;;;9.30;99.90;;;;;;4910146;29;19974;-78
2023/05/27 04:28:24;;;;;;;;;;;9.30;99.90;;;;;;4916151;29;20349;-78
2023/05/27 04:30:50;;;;;;;;;;;9.30;99.90;;;;;;4904348;29;19927;-79
2023/05/27 04:33:16;;;;;;;;;;;9.40;99.90;;;;;;4906328;29;19927;-79
2023/05/27 04:35:43;;;;;;;;;;;9.40;99.90;;;;;;4918489;29;19927;-78
2023/05/27 04:38:16;;;;;;;;;;;9.50;99.90;;;;;;4912695;29;20336;-78
2023/05/27 04:40:52;;;;;;;;;;;9.50;99.90;;;;;;4901355;29;19927;-78
2023/05/27 04:43:18;;;;;;;;;;;9.50;99.90;;;;;;4918901;29;20266;-78
2023/05/27 04:45:44;;;;;;;;;;;9.60;99.90;;;;;;4919867;29;19961;-79
2023/05/27 04:48:10;;;;;;;;;;;9.60;99.90;;;;;;4914656;29;19928;-79
2023/05/27 04:50:36;;;;;;;;;;;9.60;99.90;;;;;;4911848;29;19927;-79
2023/05/27 04:53:02;;;;;;;;;;;9.60;99.90;;;;;;4915875;29;20377;-79
2023/05/27 04:55:28;;;;;;;;;;;9.60;99.90;;;;;;4913592;29;20022;-79
2023/05/27 04:57:53;;;;;;;;;;;9.80;99.90;;;;;;4924018;29;19978;-79
2023/05/27 05:00:23;;;;;;;;;;;9.60;99.90;;;;;;4902459;29;19928;-78
2023/05/27 05:02:48;;;;;;;;;;;9.60;99.90;;;;;;4920900;29;20393;-78
2023/05/27 05:05:14;;;;;;;;;;;9.60;99.90;;;;;;4915520;29;19931;-78
2023/05/27 05:07:41;;;;;;;;;;;9.70;99.90;;;;;;4918574;29;19927;-79
2023/05/27 05:10:10;;;;;;;;;;;9.70;99.90;;;;;;4919271;29;19950;-78
2023/05/27 05:12:36;;;;;;;;;;;9.70;99.90;;;;;;4923564;29;20026;-78
2023/05/27 05:15:02;;;;;;;;;;;9.80;99.90;;;;;;4919806;29;20085;-78
2023/05/27 05:17:27;;;;;;;;;;;9.70;99.90;;;;;;4912107;29;20441;-78
2023/05/27 05:19:53;;;;;;;;;;;9.70;99.90;;;;;;4918031;29;19975;-78
2023/05/27 05:22:19;;;;;;;;;;;9.70;99.90;;;;;;4915561;29;19927;-79
2023/05/27 05:24:45;;;;;;;;;;;9.70;99.90;;;;;;4910880;29;19935;-79
2023/05/27 05:27:11;;;;;;;;;;;9.70;99.90;;;;;;4917243;29;19932;-79
2023/05/27 05:29:37;;;;;;;;;;;9.80;99.90;;;;;;4906580;29;20026;-79
2023/05/27 05:32:03;;;;;;;;;;;9.90;99.90;;;;;;4919627;29;19931;-79
2023/05/27 05:34:28;;;;;;;;;;;9.90;99.90;;;;;;4925583;29;19978;-80
2023/05/27 05:36:54;;;;;;;;;;;9.90;99.90;;;;;;4925970;29;20015;-80
2023/05/27 05:39:20;;;;;;;;;;;9.90;99.90;;;;;;4921170;29;20290;-78
2023/05/27 05:41:46;;;;;;;;;;;10.00;99.90;;;;;;4891495;29;19999;-78
2023/05/27 05:44:11;;;;;;;;;;;10.10;99.90;;;;;;4932239;29;19930;-79
2023/05/27 05:46:37;;;;;;;;;;;10.20;99.90;;;;;;4913122;29;20305;-79
2023/05/27 05:49:02;;;;;;;;;;;10.30;99.90;;;;;;4921985;29;20001;-78
2023/05/27 05:51:28;;;;;;;;;;;10.30;99.90;;;;;;4933644;29;19927;-77
2023/05/27 05:53:53;;;;;;;;;;;10.50;99.90;;;;;;4929132;29;19927;-77
2023/05/27 05:56:19;;;;;;;;;;;10.70;99.90;;;;;;4914367;29;19979;-77
2023/05/27 05:58:45;;;;;;;;;;;10.90;99.90;;;;;;4918225;29;20293;-77
2023/05/27 06:01:10;;;;;;;;;;;11.40;99.90;;;;;;4909508;29;19956;-79
2023/05/27 06:03:36;;;;;;;;;;;11.70;99.90;;;;;;4917592;29;19951;-77
2023/05/27 06:06:02;;;;;;;;;;;11.80;99.90;;;;;;4919139;29;19928;-77
2023/05/27 06:08:28;;;;;;;;;;;12.10;99.90;;;;;;4891883;29;19927;-77
2023/05/27 06:10:53;;;;;;;;;;;12.50;99.90;;;;;;4919610;29;20374;-77
2023/05/27 06:13:19;;;;;;;;;;;12.90;99.90;;;;;;4918174;29;19974;-77
2023/05/27 06:15:44;;;;;;;;;;;12.80;99.90;;;;;;4923451;29;20038;-78
2023/05/27 06:18:13;;;;;;;;;;;12.70;99.90;;;;;;4900778;29;19967;-78
2023/05/27 06:20:39;;;;;;;;;;;12.60;99.90;;;;;;4923573;29;19943;-78
2023/05/27 06:23:06;;;;;;;;;;;12.70;99.90;;;;;;4920837;29;20444;-77
2023/05/27 06:25:32;;;;;;;;;;;12.70;99.90;;;;;;4919991;29;19933;-78
2023/05/27 06:27:57;;;;;;;;;;;12.90;99.90;;;;;;4920274;29;20409;-79
2023/05/27 06:30:23;;;;;;;;;;;12.80;99.90;;;;;;4919810;29;19927;-78
2023/05/27 06:32:48;;;;;;;;;;;12.80;99.90;;;;;;4919032;29;20413;-78
2023/05/27 06:35:14;;;;;;;;;;;12.80;99.90;;;;;;4907500;29;19938;-79
2023/05/27 06:37:39;;;;;;;;;;;12.90;99.90;;;;;;4925618;29;19951;-77
2023/05/27 06:40:05;;;;;;;;;;;13.10;99.90;;;;;;4901239;29;19927;-78
2023/05/27 06:42:31;;;;;;;;;;;13.30;99.90;;;;;;4925261;29;19933;-79
2023/05/27 06:44:56;;;;;;;;;;;13.40;99.90;;;;;;4932291;29;19996;-80
2023/05/27 06:47:22;;;;;;;;;;;13.60;99.90;;;;;;4924878;29;19927;-79
2023/05/27 06:49:47;;;;;;;;;;;13.60;99.90;;;;;;4929394;29;19935;-79
2023/05/27 06:52:13;;;;;;;;;;;13.60;99.90;;;;;;4913898;29;19978;-80
2023/05/27 06:54:38;;;;;;;;;;;13.40;99.90;;;;;;4928181;29;19928;-79
2023/05/27 06:57:04;;;;;;;;;;;13.30;99.90;;;;;;4928619;29;19986;-80
2023/05/27 06:59:29;;;;;;;;;;;13.40;99.90;;;;;;4934632;29;19928;-79
2023/05/27 07:01:58;;;;;;;;;;;13.40;99.90;;;;;;4921773;29;19935;-80
2023/05/27 07:04:24;;;;;;;;;;;13.50;99.90;;;;;;4914747;29;19975;-79
2023/05/27 07:06:50;;;;;;;;;;;13.50;99.90;;;;;;4913990;29;19927;-79
2023/05/27 07:09:15;;;;;;;;;;;13.70;99.90;;;;;;4927183;29;19934;-78
2023/05/27 07:11:41;;;;;;;;;;;13.60;99.90;;;;;;4923507;29;19934;-80
2023/05/27 07:14:09;;;;;;;;;;;13.50;99.90;;;;;;4921662;29;19928;-79
2023/05/27 07:16:34;;;;;;;;;;;13.50;99.90;;;;;;4911086;29;19932;-79
2023/05/27 07:19:00;;;;;;;;;;;13.60;99.90;;;;;;4913903;29;19973;-78
2023/05/27 07:21:26;;;;;;;;;;;13.70;99.90;;;;;;4926769;29;19934;-78
2023/05/27 07:23:51;;;;;;;;;;;13.80;99.90;;;;;;4926831;29;19927;-79
2023/05/27 07:26:17;;;;;;;;;;;13.90;99.90;;;;;;4926668;29;20297;-79
2023/05/27 07:28:43;;;;;;;;;;;14.00;99.90;;;;;;4916966;29;20263;-79
2023/05/27 07:31:08;;;;;;;;;;;14.10;99.90;;;;;;4909864;29;19943;-78
2023/05/27 07:33:34;;;;;;;;;;;14.20;99.90;;;;;;4904151;29;19931;-79
2023/05/27 07:35:59;;;;;;;;;;;14.30;99.90;;;;;;4908282;29;19932;-79
2023/05/27 07:38:25;;;;;;;;;;;14.50;99.90;;;;;;4910088;29;19934;-79
2023/05/27 07:40:51;;;;;;;;;;;14.50;99.90;;;;;;4915237;29;20275;-78
2023/05/27 07:43:16;;;;;;;;;;;14.40;99.90;;;;;;4930249;29;19931;-80
2023/05/27 07:45:42;;;;;;;;;;;14.50;99.90;;;;;;4895602;29;19928;-78
2023/05/27 07:48:07;;;;;;;;;;;14.60;99.90;;;;;;4942048;29;19976;-79
2023/05/27 07:50:33;;;;;;;;;;;14.60;99.90;;;;;;4913139;29;20000;-79
2023/05/27 07:52:58;;;;;;;;;;;14.70;99.90;;;;;;4935033;29;19951;-78
2023/05/27 07:55:24;;;;;;;;;;;14.90;99.90;;;;;;4934151;29;19951;-80
2023/05/27 07:57:50;;;;;;;;;;;15.00;99.90;;;;;;4932601;29;19938;-81
2023/05/27 08:00:15;;;;;;;;;;;15.10;99.90;;;;;;4927824;29;19934;-80
2023/05/27 08:02:43;;;;;;;;;;;15.30;99.90;;;;;;4927307;29;19931;-79
2023/05/27 08:05:09;;;;;;;;;;;15.40;99.90;;;;;;4942073;29;19911;-79
2023/05/27 08:07:34;;;;;;;;;;;15.50;99.90;;;;;;4938788;29;19927;-81
2023/05/27 08:10:00;;;;;;;;;;;15.60;99.90;;;;;;4938635;29;19927;-78
2023/05/27 08:12:25;;;;;;;;;;;15.60;99.90;;;;;;4924343;29;20392;-80
2023/05/27 08:14:51;;;;;;;;;;;15.60;99.90;;;;;;4918247;29;19928;-80
2023/05/27 08:17:17;;;;;;;;;;;15.60;99.90;;;;;;4913625;29;19927;-78
2023/05/27 08:19:42;;;;;;;;;;;15.50;99.90;;;;;;4932091;29;19935;-81
2023/05/27 08:22:08;;;;;;;;;;;15.50;99.90;;;;;;4918826;29;19928;-81
2023/05/27 08:24:36;;;;;;;;;;;15.40;99.90;;;;;;4933551;29;19915;-80
2023/05/27 08:27:05;;;;;;;;;;;15.30;99.90;;;;;;4940499;29;19951;-79
2023/05/27 08:29:32;;;;;;;;;;;15.30;99.90;;;;;;4924272;29;20001;-79
2023/05/27 08:31:58;;;;;;;;;;;15.30;99.90;;;;;;4921947;29;19988;-80
2023/05/27 08:34:25;;;;;;;;;;;15.40;99.90;;;;;;4898609;29;20441;-79
2023/05/27 08:36:51;;;;;;;;;;;15.40;99.90;;;;;;4917343;29;19934;-80
2023/05/27 08:39:17;;;;;;;;;;;15.50;99.90;;;;;;4921076;29;19927;-79
2023/05/27 08:41:42;;;;;;;;;;;15.60;99.90;;;;;;4922210;29;20026;-79
2023/05/27 08:44:08;;;;;;;;;;;15.80;99.90;;;;;;4935493;29;19927;-79
2023/05/27 08:46:35;;;;;;;;;;;15.80;99.90;;;;;;4934303;29;20401;-79
2023/05/27 08:49:01;;;;;;;;;;;15.90;99.90;;;;;;4915041;29;20414;-80
2023/05/27 08:51:27;;;;;;;;;;;16.10;99.90;;;;;;4911652;29;19926;-79
2023/05/27 08:53:52;;;;;;;;;;;15.90;99.90;;;;;;4944565;29;19927;-79
2023/05/27 08:56:37;;;;;;;;;;;;;;;;;;;;;
2023/05/27 08:59:26;;;;;;;;;;;16.20;99.90;;;;;;4919530;29;19983;-80
2023/05/27 09:01:54;;;;;;;;;;;16.30;99.90;;;;;;4919468;29;19958;-79
2023/05/27 09:04:19;;;;;;;;;;;16.50;99.90;;;;;;4918891;29;19944;-79
2023/05/27 09:06:45;;;;;;;;;;;16.30;99.90;;;;;;4913159;29;19976;-78
2023/05/27 09:09:11;;;;;;;;;;;16.40;99.90;;;;;;4933821;29;19931;-79
2023/05/27 09:11:38;;;;;;;;;;;16.50;99.90;;;;;;4912343;29;20353;-80
2023/05/27 09:14:04;;;;;;;;;;;16.60;99.90;;;;;;4932677;29;19931;-79
2023/05/27 09:16:30;;;;;;;;;;;16.70;99.90;;;;;;4940346;29;19926;-81
2023/05/27 09:18:55;;;;;;;;;;;16.70;99.90;;;;;;4923742;29;19935;-80
2023/05/27 09:21:23;;;;;;;;;;;16.80;99.90;;;;;;4921694;29;19923;-81
2023/05/27 09:23:49;;;;;;;;;;;16.80;99.90;;;;;;4935023;29;19934;-81
2023/05/27 09:26:14;;;;;;;;;;;16.90;99.90;;;;;;4936700;29;19931;-79
2023/05/27 09:28:40;;;;;;;;;;;17.10;99.90;;;;;;4925111;29;19927;-78
2023/05/27 09:31:06;;;;;;;;;;;17.20;99.90;;;;;;4941376;29;19994;-81
2023/05/27 09:33:33;;;;;;;;;;;17.20;99.90;;;;;;4918904;29;20339;-79
2023/05/27 09:36:10;;;;;;;;;;;17.10;99.90;;;;;;4923969;29;19915;-81
2023/05/27 09:38:36;;;;;;;;;;;17.20;99.90;;;;;;4922630;29;19939;-78
2023/05/27 09:41:02;;;;;;;;;;;17.30;99.90;;;;;;4936982;29;20369;-80
2023/05/27 09:43:28;;;;;;;;;;;17.40;99.90;;;;;;4942566;29;19915;-80
2023/05/27 09:46:03;;;;;;;;;;;17.40;99.90;;;;;;4940642;29;19927;-80
2023/05/27 09:48:30;;;;;;;;;;;17.60;99.90;;;;;;4921242;29;19928;-80
2023/05/27 09:50:56;;;;;;;;;;;17.70;99.90;;;;;;4946855;29;19939;-80
2023/05/27 09:53:23;;;;;;;;;;;17.90;99.90;;;;;;4936838;29;19934;-80
2023/05/27 09:55:49;;;;;;;;;;;18.00;99.90;;;;;;4917092;29;19966;-79
2023/05/27 09:58:15;;;;;;;;;;;18.10;99.90;;;;;;4912304;29;19986;-78
2023/05/27 10:00:41;;;;;;;;;;;18.20;99.90;;;;;;4928205;29;19927;-79
2023/05/27 10:03:07;;;;;;;;;;;18.10;99.90;;;;;;4917351;29;19927;-79
2023/05/27 10:05:33;;;;;;;;;;;18.20;99.90;;;;;;4931491;29;19927;-79
2023/05/27 10:07:58;;;;;;;;;;;18.40;99.90;;;;;;4932902;29;19934;-81
2023/05/27 10:10:24;;;;;;;;;;;18.50;99.90;;;;;;4922439;29;19919;-78
2023/05/27 10:12:51;;;;;;;;;;;18.60;99.90;;;;;;4941288;29;19927;-78
2023/05/27 10:15:33;;;;;;;;;;;18.70;99.90;;;;;;4927038;29;19983;-80
2023/05/27 10:18:00;;;;;;;;;;;18.70;99.90;;;;;;4916558;29;19928;-78
2023/05/27 10:20:33;;;;;;;;;;;18.80;99.90;;;;;;4928495;29;19933;-79
2023/05/27 10:23:19;;;;;;;;;;;18.80;99.90;;;;;;4932779;29;19927;-81
2023/05/27 10:26:00;;;;;;;;;;;18.80;99.90;;;;;;4919813;29;19923;-79
2023/05/27 10:28:28;;;;;;;;;;;18.90;99.90;;;;;;4933067;29;19927;-78
2023/05/27 10:31:03;;;;;;;;;;;19.00;99.90;;;;;;4938812;29;19927;-80
2023/05/27 10:33:30;;;;;;;;;;;19.00;99.90;;;;;;4934708;29;19919;-80
2023/05/27 10:35:56;;;;;;;;;;;19.20;99.90;;;;;;4919317;29;20025;-79
2023/05/27 10:38:22;;;;;;;;;;;19.40;99.90;;;;;;4927308;29;19932;-80
2023/05/27 10:40:47;;;;;;;;;;;19.50;99.90;;;;;;4916612;29;19930;-79
2023/05/27 10:43:16;;;;;;;;;;;19.60;99.90;;;;;;4928724;29;19935;-79
2023/05/27 10:45:42;;;;;;;;;;;19.80;99.90;;;;;;4932862;29;19966;-79
2023/05/27 10:48:27;;;;;;;;;;;19.90;99.90;;;;;;4930051;29;19927;-78
2023/05/27 10:50:53;;;;;;;;;;;20.00;99.60;;;;;;4914498;29;19911;-80
2023/05/27 10:53:20;;;;;;;;;;;19.80;99.50;;;;;;4912709;29;19970;-82
2023/05/27 10:55:47;;;;;;;;;;;19.80;99.50;;;;;;4924031;29;19928;-78
2023/05/27 10:58:12;;;;;;;;;;;19.80;99.20;;;;;;4927119;29;19928;-81
2023/05/27 11:00:40;;;;;;;;;;;20.00;99.30;;;;;;4931884;29;19927;-81
2023/05/27 11:03:15;;;;;;;;;;;19.90;99.60;;;;;;4901403;29;19928;-78
2023/05/27 11:05:41;;;;;;;;;;;20.10;99.00;;;;;;4937475;29;20288;-79
2023/05/27 11:08:11;;;;;;;;;;;20.10;99.90;;;;;;4926508;29;19928;-80
2023/05/27 11:10:36;;;;;;;;;;;20.50;99.90;;;;;;4927884;29;19928;-79
2023/05/27 11:13:02;;;;;;;;;;;20.50;99.00;;;;;;4914936;29;19966;-79
2023/05/27 11:15:27;;;;;;;;;;;20.70;99.10;;;;;;4913317;29;19936;-81
2023/05/27 11:17:53;;;;;;;;;;;21.00;99.30;;;;;;4930530;29;19958;-80
2023/05/27 11:20:18;;;;;;;;;;;21.20;98.80;;;;;;4916438;29;19923;-80
2023/05/27 11:22:49;;;;;;;;;;;21.30;97.90;;;;;;4894925;29;19935;-80
2023/05/27 11:25:14;;;;;;;;;;;21.30;98.00;;;;;;4945582;29;19955;-80
2023/05/27 11:27:40;;;;;;;;;;;21.50;97.60;;;;;;4916856;29;19931;-81
2023/05/27 11:30:11;;;;;;;;;;;21.60;97.80;;;;;;4928560;29;20396;-78
2023/05/27 11:32:36;;;;;;;;;;;21.50;98.20;;;;;;4915400;29;19927;-79
2023/05/27 11:35:02;;;;;;;;;;;21.40;97.50;;;;;;4902798;29;19935;-78
2023/05/27 11:37:32;;;;;;;;;;;21.50;97.10;;;;;;4883517;29;20014;-80
2023/05/27 11:39:58;;;;;;;;;;;21.20;97.90;;;;;;4925257;29;20358;-78
2023/05/27 11:42:24;;;;;;;;;;;21.10;97.40;;;;;;4924759;29;19935;-79
2023/05/27 11:44:50;;;;;;;;;;;20.90;98.50;;;;;;4915300;29;19951;-80
2023/05/27 11:47:16;;;;;;;;;;;20.90;98.20;;;;;;4934927;29;19951;-81
2023/05/27 11:49:41;;;;;;;;;;;21.10;98.10;;;;;;4930953;29;19934;-80
2023/05/27 11:52:10;;;;;;;;;;;21.10;97.50;;;;;;4916365;29;20408;-80
2023/05/27 11:54:37;;;;;;;;;;;21.10;97.70;;;;;;4900046;29;19927;-79
2023/05/27 11:57:06;;;;;;;;;;;21.30;97.40;;;;;;4912658;29;19931;-79
2023/05/27 11:59:33;;;;;;;;;;;21.20;97.10;;;;;;4901034;29;20402;-79
2023/05/27 12:01:58;;;;;;;;;;;21.20;96.60;;;;;;4925501;29;20010;-79
2023/05/27 12:04:24;;;;;;;;;;;21.10;97.60;;;;;;4918311;29;19938;-78
2023/05/27 12:06:50;;;;;;;;;;;21.10;97.90;;;;;;4923160;29;19934;-79
2023/05/27 12:09:16;;;;;;;;;;;21.10;97.70;;;;;;4885585;29;20002;-78
2023/05/27 12:11:41;;;;;;;;;;;21.10;97.40;;;;;;4897441;29;19998;-77
2023/05/27 12:14:07;;;;;;;;;;;21.20;97.00;;;;;;4904561;29;19927;-79
2023/05/27 12:16:33;;;;;;;;;;;21.10;97.20;;;;;;4915176;29;19927;-79
2023/05/27 12:18:59;;;;;;;;;;;21.10;97.00;;;;;;4902651;29;19928;-77
2023/05/27 12:21:25;;;;;;;;;;;21.20;97.30;;;;;;4900580;29;19935;-77
2023/05/27 12:23:50;;;;;;;;;;;21.20;97.80;;;;;;4907707;29;19928;-78
2023/05/27 12:26:16;;;;;;;;;;;21.20;97.70;;;;;;4919790;29;20018;-78
2023/05/27 12:28:42;;;;;;;;;;;21.30;96.50;;;;;;4877317;29;19928;-80
2023/05/27 12:31:07;;;;;;;;;;;21.30;97.20;;;;;;4884686;29;19928;-78
2023/05/27 12:33:33;;;;;;;;;;;21.60;97.10;;;;;;4900658;29;19975;-78
2023/05/27 12:35:59;;;;;;;;;;;21.70;95.00;;;;;;4884369;29;19928;-80
2023/05/27 12:38:24;;;;;;;;;;;21.70;95.70;;;;;;4902821;29;19939;-79
2023/05/27 12:40:50;;;;;;;;;;;21.60;95.10;;;;;;4895737;29;19935;-79
2023/05/27 12:43:17;;;;;;;;;;;21.70;96.60;;;;;;4900919;29;19995;-79
2023/05/27 12:45:42;;;;;;;;;;;21.90;96.70;;;;;;4904625;29;19934;-80
2023/05/27 12:48:08;;;;;;;;;;;22.00;95.80;;;;;;4898947;29;20374;-79
2023/05/27 12:50:33;;;;;;;;;;;22.00;96.00;;;;;;4902458;29;19927;-79
2023/05/27 12:52:59;;;;;;;;;;;21.80;95.30;;;;;;4899302;29;19928;-81
2023/05/27 12:55:25;;;;;;;;;;;21.90;96.40;;;;;;4905104;29;19931;-80
2023/05/27 12:57:51;;;;;;;;;;;22.00;95.70;;;;;;4905347;29;19935;-78
2023/05/27 13:00:17;;;;;;;;;;;22.00;95.80;;;;;;4904013;29;19935;-79
2023/05/27 13:02:43;;;;;;;;;;;22.00;95.80;;;;;;4895950;29;19935;-80
2023/05/27 13:05:09;;;;;;;;;;;22.00;96.30;;;;;;4913592;29;19928;-79
2023/05/27 13:07:35;;;;;;;;;;;22.10;95.00;;;;;;4919659;29;19912;-80
2023/05/27 13:10:02;;;;;;;;;;;21.80;95.10;;;;;;4928173;29;19927;-79
2023/05/27 13:12:28;;;;;;;;;;;21.70;95.60;;;;;;4929071;29;20022;-80
2023/05/27 13:14:54;;;;;;;;;;;21.80;96.00;;;;;;4912953;29;20002;-78
2023/05/27 13:17:19;;;;;;;;;;;21.70;96.20;;;;;;4927638;29;19934;-78
2023/05/27 13:19:45;;;;;;;;;;;21.70;95.90;;;;;;4909170;29;19927;-79
2023/05/27 13:22:11;;;;;;;;;;;21.60;96.80;;;;;;4932490;29;19934;-79
2023/05/27 13:24:37;;;;;;;;;;;21.80;97.20;;;;;;4923948;29;19930;-79
2023/05/27 13:27:03;;;;;;;;;;;22.00;97.10;;;;;;4923335;29;19934;-79
2023/05/27 13:29:28;;;;;;;;;;;21.80;96.50;;;;;;4914967;29;19998;-79
2023/05/27 13:31:54;;;;;;;;;;;21.90;96.20;;;;;;4917302;29;19935;-80
2023/05/27 13:34:19;;;;;;;;;;;21.60;96.20;;;;;;4922914;29;19971;-79
2023/05/27 13:36:45;;;;;;;;;;;21.80;96.00;;;;;;4909670;29;20397;-80
2023/05/27 13:39:10;;;;;;;;;;;21.90;96.20;;;;;;4921963;29;19938;-79
2023/05/27 13:41:36;;;;;;;;;;;22.00;97.00;;;;;;4924762;29;20361;-79
2023/05/27 13:44:01;;;;;;;;;;;22.20;96.50;;;;;;4916424;29;19931;-78
2023/05/27 13:46:27;;;;;;;;;;;22.50;96.60;;;;;;4923490;29;19927;-80
2023/05/27 13:48:53;;;;;;;;;;;22.70;95.60;;;;;;4894279;29;19928;-79
2023/05/27 13:51:19;;;;;;;;;;;22.70;95.80;;;;;;4902387;29;19928;-80
2023/05/27 13:53:44;;;;;;;;;;;22.70;95.70;;;;;;4924803;29;20057;-80
2023/05/27 13:56:10;;;;;;;;;;;22.80;96.00;;;;;;4920661;29;19962;-80
2023/05/27 13:58:35;;;;;;;;;;;22.80;96.10;;;;;;4930241;29;19942;-79
2023/05/27 14:01:01;;;;;;;;;;;22.90;95.40;;;;;;4915652;29;19951;-79
2023/05/27 14:03:26;;;;;;;;;;;22.80;94.70;;;;;;4931208;29;19935;-78
2023/05/27 14:05:52;;;;;;;;;;;22.80;94.70;;;;;;4935436;29;19927;-79
2023/05/27 14:08:17;;;;;;;;;;;22.50;95.40;;;;;;4934060;29;19934;-79
2023/05/27 14:10:43;;;;;;;;;;;22.30;95.10;;;;;;4905294;29;19957;-78
2023/05/27 14:13:09;;;;;;;;;;;22.40;94.80;;;;;;4936213;29;19927;-79
2023/05/27 14:15:35;;;;;;;;;;;22.50;95.90;;;;;;4917590;29;19983;-79
2023/05/27 14:18:01;;;;;;;;;;;22.70;95.10;;;;;;4935430;29;19950;-79